Time;durP1;ratioP1;P1;durP2;ratioP2;P2;SDS_P1;SDS_P2;PMS_P1;PMS_P2;Temp;Humidity;BMP_temperature;BMP_pressure;BME280_temperature;BME280_humidity;BME280_pressure;Samples;Min_cycle;Max_cycle;Signal;HPM_P1;HPM_P2
2023/01/09 00:01:33;;;;;;;0.93;0.93;;;9.50;89.50;;;;;;5023642;28;20037;-67
2023/01/09 00:03:59;;;;;;;2.55;1.33;;;9.60;89.60;;;;;;5029784;28;20133;-67
2023/01/09 00:06:24;;;;;;;3.92;1.60;;;9.60;89.50;;;;;;5024293;28;20104;-66
2023/01/09 00:08:50;;;;;;;3.05;1.55;;;9.50;89.70;;;;;;5029039;28;20048;-64
2023/01/09 00:11:16;;;;;;;3.38;1.52;;;9.50;89.90;;;;;;5025152;28;20032;-67
2023/01/09 00:13:41;;;;;;;2.22;1.30;;;9.50;90.00;;;;;;5028454;28;20032;-67
2023/01/09 00:16:08;;;;;;;3.03;1.30;;;9.40;90.00;;;;;;5026566;28;20026;-66
2023/01/09 00:18:34;;;;;;;1.75;1.20;;;9.40;90.10;;;;;;5029720;28;20415;-67
2023/01/09 00:21:02;;;;;;;2.35;1.27;;;9.40;90.10;;;;;;5027168;28;20109;-66
2023/01/09 00:23:27;;;;;;;2.45;1.20;;;9.30;90.20;;;;;;5018868;28;20021;-66
2023/01/09 00:26:14;;;;;;;3.20;1.35;;;9.40;90.20;;;;;;5026713;28;20652;-65
2023/01/09 00:28:40;;;;;;;3.38;1.50;;;9.30;90.20;;;;;;5024079;28;20029;-66
2023/01/09 00:31:06;;;;;;;1.83;1.17;;;9.20;90.20;;;;;;5025812;28;20049;-65
2023/01/09 00:33:36;;;;;;;2.05;1.35;;;9.10;90.20;;;;;;5023296;28;20463;-65
2023/01/09 00:36:02;;;;;;;2.25;1.13;;;9.10;90.30;;;;;;5024686;28;20041;-65
2023/01/09 00:38:27;;;;;;;1.58;1.10;;;9.10;90.30;;;;;;5028637;28;20028;-65
2023/01/09 00:40:54;;;;;;;1.60;1.15;;;9.00;90.30;;;;;;5026644;28;20108;-65
2023/01/09 00:43:21;;;;;;;1.23;0.90;;;9.00;90.30;;;;;;5029256;28;20030;-65
2023/01/09 00:45:47;;;;;;;1.10;0.90;;;9.00;90.30;;;;;;5029278;28;20112;-65
2023/01/09 00:48:23;;;;;;;1.45;0.90;;;8.90;90.30;;;;;;5025781;28;20096;-66
2023/01/09 00:50:49;;;;;;;2.80;1.08;;;8.90;90.30;;;;;;5024742;28;20030;-66
2023/01/09 00:53:19;;;;;;;0.90;0.82;;;8.90;90.30;;;;;;5027826;28;20033;-66
2023/01/09 00:55:45;;;;;;;1.48;0.85;;;8.80;90.20;;;;;;5029215;28;20113;-65
2023/01/09 00:58:10;;;;;;;1.27;0.80;;;8.80;90.20;;;;;;5029350;28;20096;-66
2023/01/09 01:00:36;;;;;;;1.80;1.00;;;8.70;90.20;;;;;;5024618;28;20053;-65
2023/01/09 01:03:02;;;;;;;1.30;1.05;;;8.60;90.20;;;;;;5026360;28;20041;-65
2023/01/09 01:08:13;;;;;;;0.93;0.82;;;8.50;90.30;;;;;;5027776;28;20041;-66
2023/01/09 01:10:39;;;;;;;2.38;1.02;;;8.50;90.30;;;;;;5028291;28;20659;-66
2023/01/09 01:13:05;;;;;;;1.20;0.93;;;8.40;90.30;;;;;;5027938;28;20021;-65
2023/01/09 01:15:31;;;;;;;1.38;0.80;;;8.40;90.30;;;;;;5028895;28;20051;-66
2023/01/09 01:17:56;;;;;;;0.90;0.80;;;8.40;90.30;;;;;;5029047;28;20025;-65
2023/01/09 01:20:22;;;;;;;1.70;1.08;;;8.40;90.30;;;;;;5027007;28;20029;-65
2023/01/09 01:22:48;;;;;;;1.38;1.00;;;8.30;90.30;;;;;;5024570;28;20106;-65
2023/01/09 01:25:15;;;;;;;1.25;0.90;;;8.30;90.30;;;;;;5026903;28;20032;-65
2023/01/09 01:27:42;;;;;;;1.20;1.10;;;8.20;90.40;;;;;;5025857;28;20029;-65
2023/01/09 01:30:10;;;;;;;1.70;1.10;;;8.20;90.40;;;;;;5027406;28;20030;-65
2023/01/09 01:32:36;;;;;;;1.50;1.38;;;8.10;90.50;;;;;;5010347;28;20117;-65
2023/01/09 01:35:02;;;;;;;1.13;1.00;;;8.10;90.60;;;;;;5020972;28;20155;-65
2023/01/09 01:37:28;;;;;;;2.53;1.42;;;8.10;90.70;;;;;;5022609;28;20021;-65
2023/01/09 01:39:53;;;;;;;2.42;1.50;;;8.00;90.70;;;;;;5028320;28;20431;-64
2023/01/09 01:42:19;;;;;;;1.30;1.20;;;8.00;90.80;;;;;;5024568;28;20033;-64
2023/01/09 01:45:08;;;;;;;2.55;1.38;;;8.00;90.90;;;;;;5027458;28;20519;-65
2023/01/09 01:47:47;;;;;;;1.98;1.40;;;8.00;90.90;;;;;;5020575;28;20033;-64
2023/01/09 01:50:18;;;;;;;1.70;1.45;;;8.10;91.00;;;;;;5027302;28;20029;-65
2023/01/09 01:52:54;;;;;;;1.40;1.30;;;8.10;91.00;;;;;;5030028;28;20399;-65
2023/01/09 01:55:20;;;;;;;2.67;1.40;;;8.10;91.00;;;;;;5027794;28;20488;-66
2023/01/09 01:57:49;;;;;;;2.47;1.48;;;8.10;91.00;;;;;;5029003;28;20044;-66
2023/01/09 02:00:17;;;;;;;2.72;1.70;;;8.10;91.00;;;;;;5027223;28;20029;-66
2023/01/09 02:02:44;;;;;;;2.03;1.23;;;8.00;91.00;;;;;;5029536;28;20396;-66
2023/01/09 02:05:10;;;;;;;2.00;1.50;;;8.00;91.10;;;;;;5026708;28;20370;-66
2023/01/09 02:07:36;;;;;;;1.90;1.50;;;8.00;91.10;;;;;;5028442;28;20527;-65
2023/01/09 02:10:02;;;;;;;2.38;1.80;;;8.00;91.10;;;;;;5027802;28;20109;-66
2023/01/09 02:12:27;;;;;;;2.08;1.70;;;7.90;91.10;;;;;;5023517;28;20106;-66
2023/01/09 02:14:59;;;;;;;2.40;1.80;;;7.90;91.20;;;;;;5023802;28;20044;-65
2023/01/09 02:17:47;;;;;;;2.50;1.63;;;7.80;91.30;;;;;;5026794;28;20025;-65
2023/01/09 02:20:39;;;;;;;1.90;1.60;;;7.80;91.40;;;;;;5028705;28;20038;-65
2023/01/09 02:23:23;;;;;;;2.30;1.52;;;7.80;91.40;;;;;;5031738;28;20514;-65
2023/01/09 02:26:26;;;;;;;1.98;1.30;;;7.70;91.40;;;;;;5025534;28;20105;-65
2023/01/09 02:28:55;;;;;;;1.63;1.52;;;7.70;91.50;;;;;;5032019;28;20043;-66
2023/01/09 02:31:45;;;;;;;3.03;1.73;;;7.70;91.50;;;;;;5023503;28;20033;-66
2023/01/09 02:34:17;;;;;;;3.65;1.40;;;7.60;91.60;;;;;;5031665;28;20025;-65
2023/01/09 02:36:53;;;;;;;2.35;1.52;;;7.60;91.60;;;;;;5028464;28;20030;-66
2023/01/09 02:39:37;;;;;;;2.35;1.70;;;7.60;91.60;;;;;;5030266;28;20416;-66
2023/01/09 02:42:23;;;;;;;2.72;1.63;;;7.60;91.70;;;;;;5030107;28;20021;-66
2023/01/09 02:44:49;;;;;;;3.30;1.92;;;7.60;91.80;;;;;;5025719;28;20056;-65
2023/01/09 02:47:14;;;;;;;2.35;1.50;;;7.60;91.80;;;;;;5027587;28;20071;-65
2023/01/09 02:49:43;;;;;;;2.78;1.70;;;7.60;91.80;;;;;;5031386;28;20504;-65
2023/01/09 02:52:24;;;;;;;3.53;2.03;;;7.60;91.80;;;;;;5028577;28;20036;-66
2023/01/09 02:55:12;;;;;;;3.35;2.05;;;7.60;91.90;;;;;;5030388;28;20032;-65
2023/01/09 02:58:13;;;;;;;3.35;1.80;;;7.60;91.90;;;;;;5028443;28;20022;-65
2023/01/09 03:01:13;;;;;;;6.05;3.00;;;7.60;92.00;;;;;;5028266;28;20021;-65
2023/01/09 03:03:51;;;;;;;5.00;2.10;;;7.60;92.00;;;;;;5026135;28;20087;-66
2023/01/09 03:06:39;;;;;;;3.95;1.80;;;7.50;92.00;;;;;;5029833;28;20029;-67
2023/01/09 03:09:15;;;;;;;3.55;1.90;;;7.50;92.10;;;;;;5032064;28;20541;-67
2023/01/09 03:11:49;;;;;;;3.25;1.88;;;7.50;92.10;;;;;;5029498;28;20037;-67
2023/01/09 03:14:19;;;;;;;3.63;1.90;;;7.50;92.20;;;;;;5029714;28;20036;-66
2023/01/09 03:16:48;;;;;;;3.92;1.80;;;7.50;92.20;;;;;;5028995;28;20100;-68
2023/01/09 03:19:19;;;;;;;2.00;1.63;;;7.40;92.20;;;;;;5030466;28;20075;-65
2023/01/09 03:21:46;;;;;;;4.03;2.22;;;7.40;92.20;;;;;;5029455;28;20021;-67
2023/01/09 03:24:12;;;;;;;3.72;1.73;;;7.40;92.20;;;;;;5032131;28;20100;-66
2023/01/09 03:26:38;;;;;;;3.10;2.00;;;7.40;92.20;;;;;;5029047;28;20113;-67
2023/01/09 03:29:04;;;;;;;2.22;1.60;;;7.40;92.20;;;;;;5023311;28;20028;-67
2023/01/09 03:31:29;;;;;;;3.55;1.85;;;7.40;92.30;;;;;;5025948;28;20033;-68
2023/01/09 03:33:55;;;;;;;4.75;2.05;;;7.40;92.20;;;;;;5031521;28;20422;-67
2023/01/09 03:36:21;;;;;;;4.47;1.80;;;7.40;92.30;;;;;;5027045;28;20514;-68
2023/01/09 03:38:47;;;;;;;2.83;1.77;;;7.40;92.30;;;;;;5020464;28;20030;-65
2023/01/09 03:41:13;;;;;;;2.92;1.75;;;7.40;92.30;;;;;;5028494;28;20032;-66
2023/01/09 03:43:38;;;;;;;5.78;2.45;;;7.40;92.30;;;;;;5029359;28;20030;-65
2023/01/09 03:46:04;;;;;;;3.70;1.73;;;7.40;92.20;;;;;;5026426;28;20025;-65
2023/01/09 03:48:30;;;;;;;4.53;2.08;;;7.40;92.30;;;;;;5028802;28;20036;-66
2023/01/09 03:50:56;;;;;;;4.85;2.20;;;7.30;92.30;;;;;;5028700;28;20034;-65
2023/01/09 03:53:24;;;;;;;6.05;1.70;;;7.30;92.30;;;;;;5029386;28;20026;-65
2023/01/09 03:55:52;;;;;;;6.10;2.20;;;7.30;92.30;;;;;;5026813;28;20037;-66
2023/01/09 03:58:18;;;;;;;3.70;2.20;;;7.20;92.30;;;;;;5028582;28;20029;-65
2023/01/09 04:00:44;;;;;;;3.05;1.75;;;7.20;92.40;;;;;;5030152;28;20375;-66
2023/01/09 04:03:11;;;;;;;3.65;1.98;;;7.10;92.40;;;;;;5016288;28;20112;-66
2023/01/09 04:05:37;;;;;;;4.60;1.90;;;7.10;92.50;;;;;;5021243;28;20201;-65
2023/01/09 04:08:03;;;;;;;3.00;1.77;;;7.10;92.60;;;;;;5028221;28;20044;-65
2023/01/09 04:10:29;;;;;;;4.43;2.00;;;7.10;92.60;;;;;;5029655;28;20033;-65
2023/01/09 04:12:54;;;;;;;3.13;1.70;;;7.10;92.50;;;;;;5026748;28;20384;-65
2023/01/09 04:15:20;;;;;;;5.20;2.30;;;7.10;92.60;;;;;;5028869;28;20092;-65
2023/01/09 04:17:46;;;;;;;2.42;1.65;;;7.10;92.80;;;;;;5028690;28;20029;-65
2023/01/09 04:20:11;;;;;;;5.38;2.30;;;7.10;92.50;;;;;;5028705;28;20033;-65
2023/01/09 04:22:37;;;;;;;5.40;2.17;;;7.10;92.60;;;;;;5028397;28;20479;-65
2023/01/09 04:25:03;;;;;;;4.63;1.90;;;7.10;92.50;;;;;;5029937;28;20030;-65
2023/01/09 04:27:29;;;;;;;4.45;1.80;;;7.10;92.60;;;;;;5026732;28;20492;-65
2023/01/09 04:29:54;;;;;;;4.57;1.80;;;7.10;92.60;;;;;;5027151;28;20087;-65
2023/01/09 04:32:20;;;;;;;4.70;1.73;;;7.10;92.60;;;;;;5027386;28;20025;-65
2023/01/09 04:34:46;;;;;;;4.60;2.25;;;7.00;92.60;;;;;;5025800;28;20036;-65
2023/01/09 04:37:12;;;;;;;2.90;1.63;;;7.00;92.60;;;;;;5022204;28;20026;-65
2023/01/09 04:39:38;;;;;;;4.45;1.98;;;7.00;92.60;;;;;;5030544;28;20040;-65
2023/01/09 04:42:03;;;;;;;3.95;1.88;;;7.00;92.60;;;;;;5028991;28;20052;-65
2023/01/09 04:44:29;;;;;;;4.07;1.80;;;7.00;92.60;;;;;;5027411;28;20033;-65
2023/01/09 04:46:57;;;;;;;4.15;1.92;;;7.10;92.60;;;;;;5025689;28;20515;-65
2023/01/09 04:49:23;;;;;;;3.80;2.00;;;7.10;92.60;;;;;;5029451;28;20083;-66
2023/01/09 04:51:48;;;;;;;3.65;1.80;;;7.10;92.50;;;;;;5019592;28;20029;-65
2023/01/09 04:54:14;;;;;;;4.82;2.20;;;7.10;92.50;;;;;;5028190;28;20064;-66
2023/01/09 04:56:40;;;;;;;5.50;2.08;;;7.10;92.50;;;;;;5021935;28;20032;-66
2023/01/09 04:59:06;;;;;;;5.20;2.10;;;7.10;92.50;;;;;;5026852;28;20438;-66
2023/01/09 05:01:32;;;;;;;5.07;2.30;;;7.10;92.50;;;;;;5028513;28;20053;-66
2023/01/09 05:03:57;;;;;;;5.50;2.55;;;7.10;92.50;;;;;;5025900;28;20056;-66
2023/01/09 05:06:23;;;;;;;5.93;2.40;;;7.10;92.40;;;;;;5019675;28;20022;-66
2023/01/09 05:08:49;;;;;;;6.30;2.67;;;7.10;92.40;;;;;;5026254;28;20047;-66
2023/01/09 05:11:14;;;;;;;5.97;2.50;;;7.10;92.40;;;;;;5020183;28;20025;-66
2023/01/09 05:13:40;;;;;;;6.03;2.50;;;7.10;92.40;;;;;;5024752;28;20041;-66
2023/01/09 05:16:06;;;;;;;5.82;2.80;;;7.20;92.40;;;;;;5028825;28;20116;-66
2023/01/09 05:18:31;;;;;;;3.45;2.10;;;7.10;92.40;;;;;;5026645;28;20033;-66
2023/01/09 05:20:57;;;;;;;6.05;2.83;;;7.20;92.40;;;;;;5029220;28;20075;-66
2023/01/09 05:23:23;;;;;;;4.22;2.28;;;7.20;92.40;;;;;;5028554;28;20048;-65
2023/01/09 05:25:48;;;;;;;9.15;2.45;;;7.20;92.40;;;;;;5028576;28;20037;-65
2023/01/09 05:28:14;;;;;;;4.40;2.15;;;7.20;92.40;;;;;;5029478;28;20029;-65
2023/01/09 05:30:39;;;;;;;4.43;2.00;;;7.20;92.60;;;;;;5029880;28;20030;-65
2023/01/09 05:33:05;;;;;;;6.10;2.20;;;7.20;92.30;;;;;;5028320;28;20052;-65
2023/01/09 05:35:30;;;;;;;5.75;2.55;;;7.30;92.30;;;;;;5028998;28;20419;-65
2023/01/09 05:37:57;;;;;;;6.72;2.63;;;7.30;92.30;;;;;;5024879;28;20112;-65
2023/01/09 05:40:22;;;;;;;5.15;2.17;;;7.30;92.30;;;;;;5028230;28;20042;-64
2023/01/09 05:42:48;;;;;;;5.85;2.20;;;7.30;92.20;;;;;;5027042;28;20038;-65
2023/01/09 05:45:14;;;;;;;3.42;2.10;;;7.30;92.20;;;;;;5019826;28;20027;-65
2023/01/09 05:47:39;;;;;;;6.38;2.30;;;7.30;92.20;;;;;;5027740;28;20651;-65
2023/01/09 05:50:05;;;;;;;8.40;3.00;;;7.30;92.10;;;;;;5027555;28;20407;-65
2023/01/09 05:52:31;;;;;;;5.07;2.00;;;7.20;92.10;;;;;;5029476;28;20480;-65
2023/01/09 05:54:57;;;;;;;4.53;2.10;;;7.30;92.20;;;;;;5024817;28;20124;-65
2023/01/09 05:57:22;;;;;;;3.33;1.80;;;7.30;92.20;;;;;;5028900;28;20040;-65
2023/01/09 05:59:48;;;;;;;5.65;2.22;;;7.30;92.10;;;;;;5027501;28;20053;-66
2023/01/09 06:02:13;;;;;;;4.40;2.15;;;7.40;92.10;;;;;;5021226;28;20030;-65
2023/01/09 06:04:39;;;;;;;6.32;2.30;;;7.30;92.00;;;;;;5028544;28;20037;-64
2023/01/09 06:07:04;;;;;;;5.47;1.80;;;7.30;92.00;;;;;;5032413;28;20080;-65
2023/01/09 06:09:30;;;;;;;4.30;1.98;;;7.30;92.00;;;;;;5027701;28;20026;-65
2023/01/09 06:11:56;;;;;;;3.08;1.80;;;7.40;92.00;;;;;;5032978;28;20026;-65
2023/01/09 06:14:22;;;;;;;3.42;1.80;;;7.40;92.00;;;;;;5032686;28;20108;-66
2023/01/09 06:16:48;;;;;;;3.25;1.77;;;7.40;92.00;;;;;;5034110;28;20036;-66
2023/01/09 06:19:14;;;;;;;5.97;2.25;;;7.50;92.00;;;;;;5022944;28;20026;-67
2023/01/09 06:21:39;;;;;;;3.35;1.80;;;7.50;91.90;;;;;;5029771;28;20044;-66
2023/01/09 06:24:05;;;;;;;4.13;1.95;;;7.50;91.90;;;;;;5029849;28;20036;-65
2023/01/09 06:26:31;;;;;;;6.00;1.80;;;7.50;91.90;;;;;;5030107;28;20025;-65
2023/01/09 06:28:57;;;;;;;2.95;1.83;;;7.50;91.80;;;;;;5029542;28;20491;-65
2023/01/09 06:31:23;;;;;;;6.35;1.92;;;7.60;91.80;;;;;;5033568;28;20025;-65
2023/01/09 06:33:49;;;;;;;7.55;2.22;;;7.60;91.70;;;;;;5031431;28;20082;-65
2023/01/09 06:36:15;;;;;;;5.90;2.00;;;7.50;91.70;;;;;;5028868;28;20021;-65
2023/01/09 06:38:41;;;;;;;4.60;1.65;;;7.60;91.70;;;;;;5030168;28;20391;-65
2023/01/09 06:41:06;;;;;;;6.75;2.13;;;7.60;91.70;;;;;;5028225;28;20099;-65
2023/01/09 06:43:32;;;;;;;4.80;1.80;;;7.60;91.70;;;;;;5032101;28;20037;-66
2023/01/09 06:45:58;;;;;;;4.20;1.83;;;7.60;91.70;;;;;;5029087;28;20086;-65
2023/01/09 06:48:23;;;;;;;5.72;2.20;;;7.60;91.70;;;;;;5030483;28;20037;-65
2023/01/09 06:50:50;;;;;;;5.45;1.90;;;7.60;91.70;;;;;;5027010;28;20033;-65
2023/01/09 06:53:16;;;;;;;8.15;2.13;;;7.70;91.70;;;;;;5031107;28;20108;-65
2023/01/09 06:55:42;;;;;;;8.10;1.98;;;7.70;91.60;;;;;;5029775;28;20156;-65
2023/01/09 06:58:08;;;;;;;5.90;2.00;;;7.70;91.60;;;;;;5024297;28;20094;-65
2023/01/09 07:00:34;;;;;;;5.13;2.03;;;7.80;91.60;;;;;;5030137;28;20104;-65
2023/01/09 07:02:59;;;;;;;7.63;2.05;;;7.80;91.60;;;;;;5031345;28;20104;-66
2023/01/09 07:05:25;;;;;;;8.10;2.45;;;7.80;91.60;;;;;;5023861;28;20072;-66
2023/01/09 07:07:50;;;;;;;5.82;2.22;;;7.80;91.60;;;;;;5027278;28;20034;-66
2023/01/09 07:10:16;;;;;;;6.72;2.78;;;7.80;91.60;;;;;;5025132;28;20250;-66
2023/01/09 07:12:42;;;;;;;7.03;2.20;;;7.80;91.60;;;;;;5031193;28;20033;-66
2023/01/09 07:15:08;;;;;;;5.20;1.73;;;7.80;91.70;;;;;;5029691;28;20033;-66
2023/01/09 07:17:33;;;;;;;5.03;2.08;;;7.80;91.70;;;;;;5031260;28;20029;-66
2023/01/09 07:19:59;;;;;;;7.80;2.30;;;7.80;91.70;;;;;;5029302;28;20036;-65
2023/01/09 07:22:25;;;;;;;8.50;2.38;;;7.80;91.70;;;;;;5030563;28;20053;-65
2023/01/09 07:24:50;;;;;;;5.93;1.92;;;7.90;91.80;;;;;;5025080;28;20100;-65
2023/01/09 07:27:16;;;;;;;7.80;2.10;;;7.90;91.80;;;;;;5028919;28;20095;-65
2023/01/09 07:29:41;;;;;;;4.40;1.85;;;7.90;91.80;;;;;;5022718;28;20033;-64
2023/01/09 07:32:07;;;;;;;6.65;2.10;;;7.90;91.90;;;;;;5031180;28;20026;-65
2023/01/09 07:34:33;;;;;;;6.47;2.22;;;8.00;91.80;;;;;;5029084;28;20017;-65
2023/01/09 07:36:58;;;;;;;6.72;1.75;;;7.90;91.80;;;;;;5031027;28;20419;-65
2023/01/09 07:39:25;;;;;;;5.03;1.90;;;8.00;91.90;;;;;;5024331;28;20075;-65
2023/01/09 07:41:51;;;;;;;8.88;2.40;;;8.00;91.90;;;;;;5027330;28;20025;-65
2023/01/09 07:44:17;;;;;;;6.25;2.20;;;8.00;91.90;;;;;;5027585;28;20025;-65
2023/01/09 07:46:42;;;;;;;6.28;2.20;;;8.00;92.00;;;;;;5030242;28;20024;-65
2023/01/09 07:49:08;;;;;;;5.28;2.15;;;8.00;92.00;;;;;;5031055;28;20396;-66
2023/01/09 07:51:33;;;;;;;5.72;2.30;;;8.00;92.00;;;;;;5031374;28;20033;-66
2023/01/09 07:53:59;;;;;;;7.45;2.15;;;8.00;92.10;;;;;;5031022;28;20093;-66
2023/01/09 07:56:25;;;;;;;6.53;2.35;;;8.00;92.20;;;;;;5030227;28;20021;-66
2023/01/09 07:58:50;;;;;;;7.47;2.45;;;8.00;92.30;;;;;;5029001;28;20029;-66
2023/01/09 08:01:16;;;;;;;4.13;2.00;;;8.00;92.30;;;;;;5029192;28;20037;-66
2023/01/09 08:03:42;;;;;;;4.65;1.90;;;8.00;92.40;;;;;;5031081;28;20153;-66
2023/01/09 08:06:09;;;;;;;9.77;2.70;;;8.00;92.50;;;;;;5031340;28;20128;-66
2023/01/09 08:08:34;;;;;;;6.28;2.17;;;8.00;92.40;;;;;;5028580;28;20155;-66
2023/01/09 08:11:00;;;;;;;7.80;2.00;;;8.00;92.50;;;;;;5031683;28;20646;-66
2023/01/09 08:13:25;;;;;;;6.40;2.80;;;7.90;92.50;;;;;;5032997;28;20156;-66
2023/01/09 08:15:51;;;;;;;7.07;2.70;;;7.90;92.50;;;;;;5030212;28;20045;-66
2023/01/09 08:18:16;;;;;;;5.60;2.63;;;7.90;92.70;;;;;;5030863;28;20022;-66
2023/01/09 08:20:42;;;;;;;6.95;2.60;;;7.90;92.80;;;;;;5030576;28;20099;-66
2023/01/09 08:23:08;;;;;;;6.88;2.90;;;7.90;92.80;;;;;;5030318;28;20037;-65
2023/01/09 08:25:34;;;;;;;6.97;2.58;;;7.90;92.90;;;;;;5028131;28;20022;-66
2023/01/09 08:27:59;;;;;;;4.72;2.38;;;7.90;92.90;;;;;;5030883;28;20484;-66
2023/01/09 08:30:25;;;;;;;4.05;1.90;;;7.90;92.90;;;;;;5034555;28;20075;-66
2023/01/09 08:32:52;;;;;;;2.97;1.85;;;7.90;92.80;;;;;;5031904;28;20093;-66
2023/01/09 08:35:18;;;;;;;2.97;1.83;;;7.80;92.80;;;;;;5031066;28;20037;-66
2023/01/09 08:37:45;;;;;;;4.93;2.42;;;7.80;92.70;;;;;;5030478;28;20423;-65
2023/01/09 08:40:12;;;;;;;5.63;2.28;;;7.80;92.80;;;;;;5031222;28;20116;-65
2023/01/09 08:48:06;;;;;;;5.28;2.70;;;7.80;93.00;;;;;;5023870;28;20055;-65
2023/01/09 08:50:32;;;;;;;5.03;2.38;;;7.90;93.00;;;;;;5029335;28;20025;-66
2023/01/09 08:52:58;;;;;;;7.38;3.10;;;7.80;93.10;;;;;;5023315;28;20655;-65
2023/01/09 08:55:23;;;;;;;4.38;2.80;;;7.90;93.20;;;;;;5027764;28;20032;-66
2023/01/09 08:57:53;;;;;;;4.95;2.80;;;7.90;93.30;;;;;;5023851;28;20395;-65
2023/01/09 09:00:21;;;;;;;6.72;2.65;;;7.90;93.30;;;;;;5028342;28;20480;-65
2023/01/09 09:02:58;;;;;;;5.30;2.55;;;7.90;93.30;;;;;;5019381;28;20052;-65
2023/01/09 09:05:26;;;;;;;4.32;3.10;;;7.90;93.30;;;;;;5023493;28;20032;-65
2023/01/09 09:07:54;;;;;;;5.07;2.53;;;7.90;93.30;;;;;;5024579;28;20153;-66
2023/01/09 09:10:24;;;;;;;4.82;2.42;;;7.90;93.30;;;;;;5021615;28;20393;-66
2023/01/09 09:12:52;;;;;;;6.82;3.22;;;7.90;93.30;;;;;;5027754;28;20033;-66
2023/01/09 09:15:22;;;;;;;5.18;2.78;;;7.90;93.40;;;;;;5029393;28;20041;-66
2023/01/09 09:17:56;;;;;;;4.20;3.00;;;7.90;93.40;;;;;;5022032;28;20034;-66
2023/01/09 09:20:24;;;;;;;3.58;2.63;;;7.90;93.40;;;;;;5027648;28;20491;-66
2023/01/09 09:22:50;;;;;;;3.75;2.60;;;8.00;93.40;;;;;;5022927;28;20029;-66
2023/01/09 09:25:16;;;;;;;3.88;2.80;;;8.00;93.40;;;;;;5016490;28;20033;-66
2023/01/09 09:27:42;;;;;;;4.80;2.90;;;8.00;93.40;;;;;;5016889;28;20392;-66
2023/01/09 09:30:10;;;;;;;4.72;3.47;;;8.00;93.50;;;;;;5023801;28;20044;-66
2023/01/09 09:32:37;;;;;;;7.20;3.58;;;8.00;93.50;;;;;;5032044;28;20136;-66
2023/01/09 09:35:03;;;;;;;5.97;3.30;;;8.10;93.50;;;;;;5033624;28;20021;-66
2023/01/09 09:37:29;;;;;;;7.47;4.20;;;8.10;93.50;;;;;;5025808;28;20402;-66
2023/01/09 09:39:54;;;;;;;7.72;3.55;;;8.10;93.50;;;;;;5027105;28;20105;-66
2023/01/09 09:45:51;;;;;;;3.88;3.17;;;8.20;93.50;;;;;;5030552;28;20052;-66
2023/01/09 09:48:19;;;;;;;7.55;4.28;;;8.20;93.50;;;;;;5028045;28;20092;-66
2023/01/09 09:51:05;;;;;;;6.75;3.92;;;8.20;93.50;;;;;;5031066;28;20021;-66
2023/01/09 09:53:39;;;;;;;6.90;4.55;;;8.20;93.50;;;;;;5032713;28;20118;-66
2023/01/09 09:56:06;;;;;;;6.13;3.20;;;8.20;93.50;;;;;;5032390;28;20057;-66
2023/01/09 09:58:41;;;;;;;5.60;3.33;;;8.20;93.60;;;;;;5029443;28;20072;-66
2023/01/09 10:01:08;;;;;;;7.43;3.25;;;8.20;93.60;;;;;;5034893;28;20029;-66
2023/01/09 10:03:50;;;;;;;6.72;2.88;;;8.20;93.60;;;;;;5032389;28;20091;-66
2023/01/09 10:06:27;;;;;;;7.53;3.10;;;8.20;93.60;;;;;;5034690;28;20052;-66
2023/01/09 10:09:08;;;;;;;4.97;2.97;;;8.20;93.60;;;;;;5024920;28;20042;-66
2023/01/09 10:11:51;;;;;;;5.15;2.80;;;8.30;93.70;;;;;;5028785;28;20026;-66
2023/01/09 10:14:18;;;;;;;7.30;3.10;;;8.30;93.70;;;;;;5031810;28;20021;-66
2023/01/09 10:17:00;;;;;;;7.03;3.05;;;8.40;93.70;;;;;;5035806;28;20033;-66
2023/01/09 10:19:51;;;;;;;5.68;2.90;;;8.40;93.70;;;;;;5033438;28;20773;-66
2023/01/09 10:22:44;;;;;;;5.00;2.97;;;8.40;93.80;;;;;;5032578;28;20032;-66
2023/01/09 10:25:27;;;;;;;4.28;3.17;;;8.50;93.80;;;;;;5033320;28;20029;-66
2023/01/09 10:28:11;;;;;;;7.88;3.60;;;8.60;93.90;;;;;;5031372;28;20038;-66
2023/01/09 10:30:50;;;;;;;6.97;3.92;;;8.60;93.80;;;;;;5034837;28;20021;-66
2023/01/09 10:33:57;;;;;;;6.78;3.90;;;8.60;93.80;;;;;;5034145;28;20065;-66
2023/01/09 10:36:48;;;;;;;6.80;3.80;;;8.60;93.80;;;;;;5034443;28;20056;-66
2023/01/09 10:39:24;;;;;;;6.25;3.55;;;8.70;93.80;;;;;;5035077;28;20026;-66
2023/01/09 10:41:53;;;;;;;5.80;3.60;;;8.70;93.70;;;;;;5030935;28;20044;-66
2023/01/09 10:44:38;;;;;;;4.90;3.20;;;8.80;93.70;;;;;;5030570;28;20101;-66
2023/01/09 10:47:21;;;;;;;5.50;3.38;;;8.80;93.70;;;;;;5023497;28;20082;-66
2023/01/09 10:49:49;;;;;;;6.20;3.20;;;8.90;93.50;;;;;;5026925;28;20033;-66
2023/01/09 10:52:23;;;;;;;6.40;2.97;;;8.90;93.50;;;;;;5024972;28;20030;-66
2023/01/09 10:55:02;;;;;;;7.30;3.30;;;8.90;93.40;;;;;;5027424;28;20523;-66
2023/01/09 10:57:41;;;;;;;5.00;3.30;;;8.90;93.30;;;;;;5025259;28;20032;-66
2023/01/09 11:00:18;;;;;;;4.30;2.70;;;8.80;93.20;;;;;;5028632;28;20083;-66
2023/01/09 11:02:44;;;;;;;5.22;2.80;;;8.70;93.20;;;;;;5030121;28;20479;-66
2023/01/09 11:05:29;;;;;;;4.55;2.53;;;8.70;93.30;;;;;;5031318;28;20396;-66
2023/01/09 11:08:12;;;;;;;6.15;2.70;;;8.80;93.40;;;;;;5024642;28;20067;-66
2023/01/09 11:10:45;;;;;;;5.85;3.08;;;8.80;93.30;;;;;;5030890;28;20067;-66
2023/01/09 11:13:17;;;;;;;6.05;2.42;;;8.80;93.20;;;;;;5029606;28;20050;-66
2023/01/09 11:15:42;;;;;;;4.25;2.30;;;8.90;93.50;;;;;;5031032;28;20033;-66
2023/01/09 11:18:23;;;;;;;7.18;2.70;;;9.00;93.10;;;;;;5029659;28;20033;-66
2023/01/09 11:20:49;;;;;;;6.60;2.97;;;9.00;93.00;;;;;;5026383;28;20025;-66
2023/01/09 11:23:32;;;;;;;5.43;2.70;;;9.00;92.90;;;;;;5026679;28;20109;-66
2023/01/09 11:26:00;;;;;;;4.63;2.60;;;9.10;92.90;;;;;;5025623;28;20056;-66
2023/01/09 11:28:27;;;;;;;4.32;2.72;;;9.20;92.90;;;;;;5029107;28;20575;-66
2023/01/09 11:31:01;;;;;;;5.97;2.58;;;9.20;92.70;;;;;;5027940;28;20032;-66
2023/01/09 11:33:34;;;;;;;5.57;2.58;;;9.20;92.60;;;;;;5030931;28;20025;-66
2023/01/09 11:36:02;;;;;;;3.53;1.90;;;9.20;92.60;;;;;;5027801;28;20021;-66
2023/01/09 11:38:29;;;;;;;3.55;2.15;;;9.20;92.60;;;;;;5029158;28;20108;-66
2023/01/09 11:41:03;;;;;;;3.90;2.20;;;9.20;92.50;;;;;;5027506;28;20057;-66
2023/01/09 11:43:34;;;;;;;4.25;2.03;;;9.10;92.40;;;;;;5028591;28;20076;-66
2023/01/09 11:46:03;;;;;;;3.92;1.90;;;9.10;92.50;;;;;;5029194;28;20435;-66
2023/01/09 11:48:34;;;;;;;4.40;2.08;;;9.10;92.40;;;;;;5022922;28;20017;-66
2023/01/09 11:51:02;;;;;;;3.58;2.05;;;9.10;92.40;;;;;;5029917;28;20037;-66
2023/01/09 11:53:40;;;;;;;3.22;1.90;;;9.10;92.40;;;;;;5026977;28;20032;-66
2023/01/09 11:56:08;;;;;;;4.75;2.20;;;9.10;92.50;;;;;;5029608;28;20479;-66
2023/01/09 11:58:34;;;;;;;4.05;1.60;;;9.20;92.50;;;;;;5028533;28;20029;-66
2023/01/09 12:01:38;;;;;;;3.47;1.77;;;9.20;92.40;;;;;;5029831;28;20537;-66
2023/01/09 12:04:18;;;;;;;3.88;2.00;;;9.30;92.40;;;;;;5026930;28;20041;-66
2023/01/09 12:07:14;;;;;;;5.47;2.13;;;9.30;92.40;;;;;;5029481;28;20025;-66
2023/01/09 12:09:49;;;;;;;5.25;2.30;;;9.40;92.40;;;;;;5026560;28;20124;-66
2023/01/09 12:12:24;;;;;;;6.57;2.30;;;9.30;92.60;;;;;;5023367;28;20021;-66
2023/01/09 12:15:23;;;;;;;4.68;2.00;;;9.40;92.50;;;;;;5024198;28;20025;-66
2023/01/09 12:18:24;;;;;;;4.43;2.17;;;9.40;92.20;;;;;;5027240;28;20068;-66
2023/01/09 12:21:01;;;;;;;5.25;1.85;;;9.50;92.10;;;;;;5025120;28;20026;-66
2023/01/09 12:24:00;;;;;;;6.47;2.30;;;9.60;92.10;;;;;;5022818;28;20369;-66
2023/01/09 12:26:47;;;;;;;4.15;1.90;;;9.60;92.00;;;;;;5027654;28;20034;-66
2023/01/09 12:29:37;;;;;;;6.13;2.03;;;9.60;91.90;;;;;;5032224;28;20158;-66
2023/01/09 12:32:31;;;;;;;8.13;2.28;;;9.60;91.90;;;;;;5023758;28;20121;-66
2023/01/09 12:35:22;;;;;;;7.80;2.20;;;9.60;91.90;;;;;;5019566;28;20106;-66
2023/01/09 12:38:24;;;;;;;7.30;2.20;;;9.70;91.80;;;;;;5024283;28;20112;-66
2023/01/09 12:41:21;;;;;;;6.57;2.10;;;10.20;91.30;;;;;;5021574;28;20033;-66
2023/01/09 12:44:19;;;;;;;10.98;3.05;;;10.00;91.00;;;;;;5019891;28;20029;-66
2023/01/09 12:47:06;;;;;;;7.15;2.47;;;9.90;91.10;;;;;;5027503;28;20033;-66
2023/01/09 12:49:40;;;;;;;6.18;2.38;;;9.70;91.10;;;;;;5027470;28;20037;-66
2023/01/09 12:52:16;;;;;;;7.68;2.42;;;9.70;91.30;;;;;;5028774;28;20431;-66
2023/01/09 12:55:15;;;;;;;6.55;2.20;;;9.80;91.10;;;;;;5027869;28;20754;-66
2023/01/09 12:57:48;;;;;;;6.28;2.00;;;9.90;91.00;;;;;;5028609;28;20029;-66
2023/01/09 13:00:41;;;;;;;6.72;2.00;;;9.90;91.00;;;;;;5026961;28;20029;-66
2023/01/09 13:03:35;;;;;;;5.75;2.17;;;9.90;91.00;;;;;;5023857;28;20112;-66
2023/01/09 13:06:04;;;;;;;7.20;2.20;;;9.80;90.90;;;;;;5028749;28;20045;-66
2023/01/09 13:08:43;;;;;;;7.90;2.47;;;9.80;91.00;;;;;;5029642;28;20499;-66
2023/01/09 13:11:24;;;;;;;97.57;9.93;;;9.80;91.10;;;;;;5029319;28;20046;-67
2023/01/09 13:14:00;;;;;;;3.10;1.60;;;9.80;91.60;;;;;;5029610;28;20030;-67
2023/01/09 13:16:34;;;;;;;10.60;2.10;;;9.80;92.40;;;;;;5024585;28;20057;-66
2023/01/09 13:19:19;;;;;;;5.55;1.58;;;9.80;92.80;;;;;;5025286;28;20083;-66
2023/01/09 13:21:45;;;;;;;2.13;1.35;;;9.80;93.10;;;;;;5020631;28;20037;-66
2023/01/09 13:24:19;;;;;;;5.78;1.60;;;9.90;93.30;;;;;;5027929;28;20037;-66
2023/01/09 13:26:50;;;;;;;2.90;1.00;;;9.90;93.50;;;;;;5014895;28;20041;-67
2023/01/09 13:29:25;;;;;;;6.82;2.00;;;10.00;93.50;;;;;;5025216;28;20446;-66